Time;durP1;ratioP1;P1;durP2;ratioP2;P2;SDS_P1;SDS_P2;PMS_P1;PMS_P2;Temp;Humidity;BMP_temperature;BMP_pressure;BME280_temperature;BME280_humidity;BME280_pressure;Samples;Min_cycle;Max_cycle;Signal;HPM_P1;HPM_P2
2022/04/01 00:00:28;;;;;;;;;;;;;;;;;;;;;
2022/04/01 00:03:18;;;;;;;3.00;1.70;;;;;;;0.17;83.03;99710.67;104928;1277;71965;-70
2022/04/01 00:06:16;;;;;;;2.50;1.50;;;;;;;0.12;84.14;99711.30;105022;1277;72920;-72
2022/04/01 00:09:02;;;;;;;3.30;1.30;;;;;;;0.06;85.36;99711.98;104989;1277;61659;-73
2022/04/01 00:11:43;;;;;;;;;;;;;;;;;;;;;
2022/04/01 00:14:23;;;;;;;4.00;1.90;;;;;;;-0.05;86.82;99716.91;105003;1277;74940;-72
2022/04/01 00:16:55;;;;;;;6.00;2.10;;;;;;;-0.11;87.82;99715.73;105094;1277;72375;-71
2022/04/01 00:20:02;;;;;;;;;;;;;;;;;;;;;
2022/04/01 00:22:37;;;;;;;3.10;1.60;;;;;;;-0.20;88.92;99719.92;104846;1277;61289;-71
2022/04/01 00:25:07;;;;;;;2.90;1.40;;;;;;;-0.25;89.50;99721.89;104969;1277;62081;-70
2022/04/01 00:27:58;;;;;;;2.40;1.60;;;;;;;-0.27;90.48;99724.87;105069;1276;75992;-71
2022/04/01 00:30:50;;;;;;;3.20;1.40;;;;;;;-0.32;91.02;99724.05;105047;1276;70464;-72
2022/04/01 00:33:31;;;;;;;4.60;1.70;;;;;;;-0.37;92.24;99720.80;105093;1278;73009;-73
2022/04/01 00:36:23;;;;;;;5.20;2.00;;;;;;;-0.43;92.98;99721.11;104929;1278;61316;-74
2022/04/01 00:38:58;;;;;;;2.90;1.60;;;;;;;-0.48;93.51;99726.05;104971;1277;61264;-72
2022/04/01 00:41:34;;;;;;;3.30;1.60;;;;;;;-0.51;94.07;99729.31;104992;1276;74530;-73
2022/04/01 00:44:36;;;;;;;4.80;2.20;;;;;;;-0.57;95.01;99726.29;105008;1277;71495;-72
2022/04/01 00:47:11;;;;;;;5.20;1.70;;;;;;;-0.62;95.54;99725.81;104835;1277;72005;-72
2022/04/01 00:49:59;;;;;;;4.70;2.00;;;;;;;-0.65;96.16;99731.16;105081;1276;64295;-72
2022/04/01 00:52:28;;;;;;;3.60;1.60;;;;;;;-0.70;96.69;99732.04;105080;1277;61730;-73
2022/04/01 00:55:17;;;;;;;4.10;2.20;;;;;;;-0.72;96.80;99732.59;105031;1276;76231;-72
2022/04/01 00:58:28;;;;;;;2.80;1.20;;;;;;;-0.76;97.31;99739.48;104969;1277;70543;-72
2022/04/01 01:01:14;;;;;;;2.10;1.30;;;;;;;-0.77;97.18;99739.11;104968;1276;72948;-72
2022/04/01 01:03:52;;;;;;;2.80;1.80;;;;;;;-0.80;97.83;99736.15;104948;1276;61561;-75
2022/04/01 01:06:21;;;;;;;4.40;1.90;;;;;;;-0.83;98.90;99737.23;105125;1277;61097;-72
2022/04/01 01:08:48;;;;;;;8.60;2.50;;;;;;;-0.85;99.21;99736.17;105288;1277;75955;-73
2022/04/01 01:11:25;;;;;;;3.70;2.00;;;;;;;-0.86;99.63;99737.51;104962;1276;72578;-75
2022/04/01 01:13:56;;;;;;;4.70;2.60;;;;;;;-0.88;99.94;99737.49;105276;1277;74385;-74
2022/04/01 01:16:31;;;;;;;5.10;2.50;;;;;;;-0.89;100.00;99743.30;104936;1276;61257;-74
2022/04/01 01:19:15;;;;;;;6.00;3.10;;;;;;;-0.90;100.00;99743.23;105099;1277;61401;-75
2022/04/01 01:21:49;;;;;;;2.70;1.50;;;;;;;-0.91;100.00;99740.84;104894;1278;76053;-75
2022/04/01 01:24:20;;;;;;;5.40;2.40;;;;;;;-0.92;100.00;99742.20;104990;1278;72395;-73
2022/04/01 01:27:14;;;;;;;4.80;2.10;;;;;;;-0.94;100.00;99745.14;105008;1278;72691;-76
2022/04/01 01:30:09;;;;;;;3.20;1.70;;;;;;;-0.96;100.00;99744.77;104972;1278;62472;-72
2022/04/01 01:32:41;;;;;;;4.20;2.10;;;;;;;-0.98;100.00;99742.99;105012;1277;61519;-72
2022/04/01 01:35:16;;;;;;;3.60;1.70;;;;;;;-1.01;100.00;99740.66;104957;1278;75098;-73
2022/04/01 01:37:43;;;;;;;4.20;2.40;;;;;;;-1.03;100.00;99740.79;105082;1277;71547;-73
2022/04/01 01:40:24;;;;;;;3.20;1.90;;;;;;;-1.04;100.00;99740.20;104956;1278;74133;-74
2022/04/01 01:43:06;;;;;;;8.60;2.90;;;;;;;-1.04;100.00;99740.05;105001;1277;61313;-73
2022/04/01 01:45:47;;;;;;;;;;;;;;;;;;;;;
2022/04/01 01:48:22;;;;;;;3.40;1.60;;;;;;;-1.05;100.00;99736.98;105007;1277;76162;-72
2022/04/01 01:56:56;;;;;;;3.70;1.80;;;;;;;-1.07;100.00;99740.80;105163;1276;61369;-73
2022/04/01 01:59:28;;;;;;;6.00;2.50;;;;;;;-1.07;100.00;99739.77;104935;1277;61238;-71
2022/04/01 02:02:15;;;;;;;3.90;2.20;;;;;;;-1.09;100.00;99738.52;104970;1277;76390;-73
2022/04/01 02:04:51;;;;;;;6.10;2.40;;;;;;;-1.10;100.00;99743.63;105019;1276;71441;-74
2022/04/01 02:07:27;;;;;;;4.20;2.30;;;;;;;-1.12;100.00;99746.88;105001;1277;74339;-72
2022/04/01 02:09:57;;;;;;;6.90;3.20;;;;;;;-1.13;100.00;99741.94;105083;1277;62040;-74
2022/04/01 02:12:27;;;;;;;3.10;2.10;;;;;;;-1.14;100.00;99749.33;104956;1278;61272;-72
2022/04/01 02:14:57;;;;;;;1.60;1.30;;;;;;;-1.14;100.00;99748.16;104971;1278;74982;-72
2022/04/01 02:17:49;;;;;;;3.60;2.00;;;;;;;-1.15;100.00;99746.48;105114;1278;71611;-74
2022/04/01 02:20:38;;;;;;;7.70;2.60;;;;;;;-1.16;100.00;99748.48;104964;1277;73485;-71
2022/04/01 02:23:03;;;;;;;2.60;1.70;;;;;;;-1.16;100.00;99744.48;104959;1278;62530;-72
2022/04/01 02:25:51;;;;;;;3.90;1.90;;;;;;;-1.18;100.00;99745.86;104990;1276;61270;-73
2022/04/01 02:28:28;;;;;;;4.80;2.30;;;;;;;-1.19;100.00;99750.27;105026;1276;76067;-74
2022/04/01 02:31:35;;;;;;;4.70;2.30;;;;;;;-1.20;100.00;99746.06;105068;1277;71332;-73
2022/04/01 02:34:27;;;;;;;3.70;2.20;;;;;;;-1.23;100.00;99746.23;105011;1278;74091;-73
2022/04/01 02:36:58;;;;;;;4.20;2.70;;;;;;;-1.25;100.00;99752.59;105218;1279;62532;-74
2022/04/01 02:39:31;;;;;;;3.80;1.40;;;;;;;-1.26;100.00;99747.65;105038;1277;61476;-72
2022/04/01 02:41:58;;;;;;;5.00;2.50;;;;;;;-1.27;100.00;99754.52;105072;1277;75993;-73
2022/04/01 02:44:27;;;;;;;3.00;1.90;;;;;;;-1.28;100.00;99751.48;104987;1278;61478;-74
2022/04/01 02:47:35;;;;;;;5.70;2.60;;;;;;;-1.30;100.00;99755.42;104908;1277;74005;-71
2022/04/01 02:50:27;;;;;;;5.10;2.20;;;;;;;-1.31;100.00;99755.55;104946;1276;63369;-73
2022/04/01 02:52:53;;;;;;;6.40;2.80;;;;;;;-1.33;100.00;99755.34;105014;1277;61586;-71
2022/04/01 02:55:40;;;;;;;3.70;2.00;;;;;;;-1.34;100.00;99758.54;105053;1277;76029;-71
2022/04/01 02:58:17;;;;;;;;;;;;;;;;;;;;;
2022/04/01 03:01:31;;;;;;;5.30;2.40;;;;;;;-1.36;100.00;99763.40;105001;1279;73064;-73
2022/04/01 03:04:20;;;;;;;5.10;2.80;;;;;;;-1.38;100.00;99767.69;104975;1277;62484;-72
2022/04/01 03:07:02;;;;;;;;;;;;;;;;;;;;;
2022/04/01 03:09:33;;;;;;;3.20;2.00;;;;;;;-1.40;100.00;99772.74;105012;1277;74914;-73
2022/04/01 03:12:07;;;;;;;2.90;1.50;;;;;;;-1.41;100.00;99776.14;104981;1278;71582;-73
2022/04/01 03:14:34;;;;;;;4.00;2.20;;;;;;;-1.42;100.00;99773.21;105081;1276;73217;-73
2022/04/01 03:17:15;;;;;;;;;;;;;;;;;;;;;
2022/04/01 03:19:55;;;;;;;5.10;2.50;;;;;;;-1.44;100.00;99780.83;105281;1277;61922;-72
2022/04/01 03:22:52;;;;;;;;;;;;;;;;;;;;;
2022/04/01 03:25:32;;;;;;;;;;;;;;;;;;;;;
2022/04/01 03:28:04;;;;;;;4.70;2.00;;;;;;;-1.44;100.00;99781.90;104991;1276;73068;-71
2022/04/01 03:30:34;;;;;;;3.10;2.10;;;;;;;-1.45;100.00;99779.71;105049;1277;61351;-72
2022/04/01 03:34:02;;;;;;;4.50;2.50;;;;;;;-1.46;100.00;99782.02;105046;1278;61671;-74
2022/04/01 03:37:29;;;;;;;5.10;2.30;;;;;;;-1.46;100.00;99788.64;104946;1278;76114;-73
2022/04/01 03:40:37;;;;;;;5.50;3.40;;;;;;;-1.47;100.00;99788.04;104871;1276;72439;-73
2022/04/01 03:43:29;;;;;;;5.10;3.00;;;;;;;-1.50;100.00;99795.20;105069;1277;74435;-72
2022/04/01 03:46:26;;;;;;;4.60;2.50;;;;;;;-1.50;100.00;99795.56;104923;1278;61775;-76
2022/04/01 03:49:07;;;;;;;5.00;2.70;;;;;;;-1.51;100.00;99796.15;105098;1276;61370;-74
2022/04/01 03:51:38;;;;;;;3.90;2.50;;;;;;;-1.53;100.00;99798.00;105066;1278;75084;-74
2022/04/01 03:54:11;;;;;;;5.80;3.00;;;;;;;-1.54;100.00;99801.43;105068;1276;72728;-76
2022/04/01 03:56:43;;;;;;;4.70;2.30;;;;;;;-1.54;100.00;99801.09;104955;1276;73112;-74
2022/04/01 03:59:40;;;;;;;3.50;2.30;;;;;;;-1.54;100.00;99804.34;105058;1278;62268;-73
2022/04/01 04:02:12;;;;;;;4.60;2.80;;;;;;;-1.53;100.00;99803.39;105002;1278;61839;-73
2022/04/01 04:04:44;;;;;;;4.00;2.40;;;;;;;-1.52;100.00;99805.08;105065;1277;75001;-73
2022/04/01 04:07:45;;;;;;;;;;;;;;;;;;;;;
2022/04/01 04:10:13;;;;;;;4.50;2.70;;;;;;;-1.52;100.00;99805.05;105103;1279;73031;-72
2022/04/01 04:12:46;;;;;;;4.50;2.50;;;;;;;-1.51;100.00;99807.60;105023;1278;61331;-71
2022/04/01 04:15:40;;;;;;;7.70;3.40;;;;;;;-1.51;100.00;99811.73;104994;1278;61759;-73
2022/04/01 04:18:27;;;;;;;3.70;2.30;;;;;;;-1.51;100.00;99818.02;105004;1278;73656;-73
2022/04/01 04:21:36;;;;;;;8.10;3.20;;;;;;;-1.51;100.00;99821.98;105026;1278;72600;-75
2022/04/01 04:24:22;;;;;;;5.30;2.90;;;;;;;-1.50;100.00;99818.11;104794;1279;72684;-73
2022/04/01 04:26:51;;;;;;;3.30;2.10;;;;;;;-1.50;100.00;99818.57;104981;1277;61228;-73
2022/04/01 04:29:20;;;;;;;5.30;2.20;;;;;;;-1.50;100.00;99823.44;105158;1276;61241;-71
2022/04/01 04:31:59;;;;;;;5.10;2.90;;;;;;;-1.50;100.00;99822.08;105067;1277;75152;-72
2022/04/01 04:34:37;;;;;;;3.10;1.90;;;;;;;-1.48;100.00;99826.42;105044;1277;71404;-73
2022/04/01 04:37:09;;;;;;;4.60;2.70;;;;;;;-1.46;100.00;99831.08;104974;1276;71993;-70
2022/04/01 04:39:38;;;;;;;4.80;2.70;;;;;;;-1.42;100.00;99830.10;104954;1280;62340;-73
2022/04/01 04:42:07;;;;;;;3.40;2.50;;;;;;;-1.40;100.00;99832.05;105174;1278;61239;-72
2022/04/01 04:44:34;;;;;;;4.90;2.70;;;;;;;-1.39;100.00;99834.53;105164;1276;75087;-70
2022/04/01 04:47:05;;;;;;;2.80;1.60;;;;;;;-1.37;100.00;99830.80;104985;1279;70345;-73
2022/04/01 04:49:32;;;;;;;2.60;1.40;;;;;;;-1.37;100.00;99831.81;105057;1276;72987;-70
2022/04/01 04:51:59;;;;;;;4.20;2.60;;;;;;;-1.39;100.00;99831.09;105000;1277;62539;-71
2022/04/01 04:54:26;;;;;;;4.50;2.90;;;;;;;-1.40;100.00;99832.75;105077;1279;61227;-70
2022/04/01 04:56:55;;;;;;;3.70;2.40;;;;;;;-1.42;100.00;99836.73;105027;1277;76068;-71
2022/04/01 04:59:23;;;;;;;2.90;1.80;;;;;;;-1.45;100.00;99843.50;105180;1279;72369;-72
2022/04/01 05:02:08;;;;;;;4.50;2.40;;;;;;;-1.47;100.00;99843.02;105235;1277;73759;-74
2022/04/01 05:05:01;;;;;;;3.60;2.30;;;;;;;-1.49;100.00;99844.16;105043;1277;62546;-72
2022/04/01 05:07:35;;;;;;;5.20;2.70;;;;;;;-1.49;100.00;99848.34;105220;1277;61266;-73
2022/04/01 05:10:04;;;;;;;6.10;2.60;;;;;;;-1.50;100.00;99850.48;105160;1277;76015;-71
2022/04/01 05:12:30;;;;;;;4.10;2.60;;;;;;;-1.50;100.00;99855.51;105072;1279;71373;-71
2022/04/01 05:15:08;;;;;;;1.60;1.20;;;;;;;-1.49;100.00;99863.05;105039;1278;74027;-74
2022/04/01 05:18:01;;;;;;;5.00;2.50;;;;;;;-1.49;100.00;99867.41;105234;1279;61264;-72
2022/04/01 05:20:35;;;;;;;6.30;3.10;;;;;;;-1.46;100.00;99870.29;104987;1277;61257;-70
2022/04/01 05:23:16;;;;;;;2.70;1.60;;;;;;;-1.44;100.00;99873.08;105046;1277;74994;-72
2022/04/01 05:25:45;;;;;;;5.50;3.00;;;;;;;-1.40;100.00;99875.45;105074;1278;71375;-72
2022/04/01 05:28:25;;;;;;;3.60;2.60;;;;;;;-1.40;100.00;99878.17;105034;1277;72781;-74
2022/04/01 05:31:30;;;;;;;5.30;2.10;;;;;;;-1.39;100.00;99881.41;105013;1279;61367;-73
2022/04/01 05:34:07;;;;;;;4.20;2.30;;;;;;;-1.39;100.00;99884.48;105006;1279;61229;-73
2022/04/01 05:36:43;;;;;;;3.50;1.90;;;;;;;-1.39;100.00;99889.55;104895;1277;76322;-76
2022/04/01 05:39:12;;;;;;;4.70;2.40;;;;;;;-1.38;100.00;99892.42;105173;1278;71437;-73
2022/04/01 05:41:41;;;;;;;8.50;2.40;;;;;;;-1.38;100.00;99893.96;105220;1279;72989;-74
2022/04/01 05:44:22;;;;;;;3.30;1.70;;;;;;;-1.36;100.00;99895.23;105054;1277;61242;-80
2022/04/01 05:46:51;;;;;;;7.10;2.90;;;;;;;-1.36;100.00;99897.30;105036;1277;61420;-76
2022/04/01 05:49:18;;;;;;;4.20;1.90;;;;;;;-1.36;100.00;99905.26;105152;1277;75040;-75
2022/04/01 05:51:49;;;;;;;4.60;3.10;;;;;;;-1.34;100.00;99905.67;105003;1276;72447;-74
2022/04/01 05:54:19;;;;;;;3.30;1.90;;;;;;;-1.33;100.00;99908.70;105208;1279;73021;-74
2022/04/01 05:56:48;;;;;;;4.90;2.20;;;;;;;-1.32;100.00;99913.13;105436;1278;61387;-77
2022/04/01 05:59:20;;;;;;;4.00;2.40;;;;;;;-1.30;100.00;99914.21;105550;1277;61905;-76
2022/04/01 06:02:09;;;;;;;4.60;2.20;;;;;;;-1.32;100.00;99914.70;105227;1276;75957;-76
2022/04/01 06:05:25;;;;;;;7.20;2.70;;;;;;;-1.33;100.00;99917.50;105218;1279;71409;-75
2022/04/01 06:08:53;;;;;;;6.60;3.00;;;;;;;-1.32;100.00;99919.19;105020;1279;74160;-75
2022/04/01 06:11:35;;;;;;;5.20;2.90;;;;;;;-1.28;100.00;99930.17;105125;1278;61470;-75
2022/04/01 06:14:21;;;;;;;23.60;9.20;;;;;;;-1.24;100.00;99929.30;105091;1276;61223;-74
2022/04/01 06:16:56;;;;;;;6.10;2.80;;;;;;;-1.18;100.00;99929.98;104905;1277;75160;-75
2022/04/01 06:19:24;;;;;;;;;;;;;;;-1.18;100.00;99933.92;104921;1279;71491;-74
2022/04/01 06:22:03;;;;;;;6.20;3.50;;;;;;;-1.19;100.00;99937.80;104936;1279;73077;-75
2022/04/01 06:24:55;;;;;;;3.10;1.80;;;;;;;-1.19;100.00;99943.19;105003;1279;61451;-75
2022/04/01 06:27:38;;;;;;;8.30;4.50;;;;;;;-1.19;100.00;99944.39;104859;1277;61162;-76
2022/04/01 06:30:08;;;;;;;8.50;4.40;;;;;;;-1.16;100.00;99947.79;104878;1278;74061;-74
2022/04/01 06:33:03;;;;;;;5.80;2.70;;;;;;;-1.12;100.00;99948.41;104774;1279;72206;-74
2022/04/01 06:35:38;;;;;;;3.80;2.00;;;;;;;-1.08;100.00;99957.77;105084;1279;73056;-74
2022/04/01 06:38:17;;;;;;;7.00;2.80;;;;;;;-1.06;99.91;99967.55;105195;1277;61479;-75
2022/04/01 06:40:52;;;;;;;9.80;4.00;;;;;;;-1.03;99.87;99967.28;104945;1277;61187;-75
2022/04/01 06:43:18;;;;;;;;;;;;;;;-0.99;99.45;99970.77;108263;1277;76290;-76
2022/04/01 06:45:45;;;;;;;3.80;2.30;;;;;;;-0.99;98.82;99972.87;105428;1278;61306;-73
2022/04/01 06:48:12;;;;;;;6.50;3.10;;;;;;;-0.97;98.55;99979.11;104953;1279;73988;-74
2022/04/01 06:50:49;;;;;;;11.40;5.40;;;;;;;-0.93;98.50;99977.95;105031;1278;61165;-74
2022/04/01 06:53:17;;;;;;;6.90;3.20;;;;;;;-0.91;98.09;99982.14;105131;1276;61908;-74
2022/04/01 06:55:47;;;;;;;4.30;2.20;;;;;;;-0.89;97.76;99983.39;105069;1277;73833;-71
2022/04/01 06:58:14;;;;;;;5.30;2.40;;;;;;;-0.87;97.60;99985.27;105055;1277;71257;-71
2022/04/01 07:00:42;;;;;;;4.10;1.60;;;;;;;-0.83;97.51;99982.18;104934;1277;72972;-70
2022/04/01 07:03:10;;;;;;;3.90;2.30;;;;;;;-0.76;97.39;99984.88;108022;1277;61169;-71
2022/04/01 07:05:39;;;;;;;3.50;2.10;;;;;;;-0.72;97.17;99983.63;105907;1279;61333;-70
2022/04/01 07:08:08;;;;;;;4.20;2.20;;;;;;;-0.64;97.17;99975.38;104954;1278;76059;-70
2022/04/01 07:10:35;;;;;;;5.60;2.60;;;;;;;-0.56;96.93;99977.66;105041;1278;72626;-70
2022/04/01 07:13:02;;;;;;;6.80;2.80;;;;;;;-0.48;96.68;99979.44;105162;1278;74041;-68
2022/04/01 07:15:29;;;;;;;4.30;2.30;;;;;;;-0.37;96.38;99985.06;104913;1279;61592;-71
2022/04/01 07:18:03;;;;;;;5.00;2.20;;;;;;;-0.29;96.14;99986.48;104982;1278;61272;-70
2022/04/01 07:20:30;;;;;;;5.20;2.50;;;;;;;-0.25;94.97;99988.75;105523;1278;76428;-71
2022/04/01 07:22:56;;;;;;;5.80;2.90;;;;;;;-0.18;94.94;99986.97;105068;1277;71533;-72
2022/04/01 07:25:24;;;;;;;4.20;2.30;;;;;;;-0.07;94.87;99989.42;104983;1278;61344;-73
2022/04/01 07:27:52;;;;;;;2.50;1.50;;;;;;;0.03;94.74;99982.02;105055;1278;61603;-71
2022/04/01 07:30:22;;;;;;;4.40;2.40;;;;;;;0.16;93.85;99984.23;105804;1277;61523;-71
2022/04/01 07:32:54;;;;;;;6.60;3.00;;;;;;;0.28;93.58;99981.14;106282;1277;76088;-70
2022/04/01 07:35:22;;;;;;;5.80;2.80;;;;;;;0.43;92.89;99980.29;104930;1278;72454;-71
2022/04/01 07:37:49;;;;;;;3.80;2.20;;;;;;;0.58;92.21;99979.61;105027;1276;72869;-70
2022/04/01 07:40:21;;;;;;;3.70;2.10;;;;;;;0.74;91.52;99980.70;105011;1277;61524;-70
2022/04/01 07:42:48;;;;;;;4.50;2.70;;;;;;;0.90;91.05;99984.05;105362;1278;62534;-71
2022/04/01 07:45:17;;;;;;;6.20;3.60;;;;;;;1.09;90.93;99986.77;105059;1279;74914;-70
2022/04/01 07:47:46;;;;;;;5.00;1.80;;;;;;;1.26;89.42;99981.17;105088;1276;72478;-69
2022/04/01 07:50:14;;;;;;;5.60;2.40;;;;;;;1.28;82.86;99979.75;105010;1276;72945;-69
2022/04/01 07:52:43;;;;;;;8.70;2.80;;;;;;;1.26;80.60;99982.33;105262;1278;61462;-68
2022/04/01 07:55:13;;;;;;;6.60;2.90;;;;;;;1.37;82.50;99991.14;105246;1277;61503;-70
2022/04/01 07:57:41;;;;;;;4.90;2.50;;;;;;;1.51;82.91;99985.77;107060;1277;75756;-69
2022/04/01 08:00:15;;;;;;;4.60;2.40;;;;;;;1.64;81.83;99986.73;105314;1278;71369;-68
2022/04/01 08:02:42;;;;;;;3.50;2.00;;;;;;;1.75;80.14;99986.94;104988;1277;73353;-68
2022/04/01 08:05:10;;;;;;;4.30;2.40;;;;;;;1.80;77.96;99986.00;106077;1277;61443;-68
2022/04/01 08:07:37;;;;;;;3.80;2.50;;;;;;;1.75;74.61;99986.60;105257;1278;61193;-68
2022/04/01 08:10:06;;;;;;;5.60;2.70;;;;;;;1.78;76.39;99984.98;104976;1277;76126;-69
2022/04/01 08:12:40;;;;;;;4.10;2.20;;;;;;;1.90;78.12;99984.44;105158;1277;72699;-68
2022/04/01 08:15:11;;;;;;;8.20;3.00;;;;;;;1.97;76.31;99985.16;105185;1278;74219;-71
2022/04/01 08:17:37;;;;;;;7.40;2.80;;;;;;;1.99;75.75;99980.59;105409;1277;61574;-71
2022/04/01 08:20:05;;;;;;;3.80;1.80;;;;;;;2.01;75.47;99980.43;105213;1277;61174;-75
2022/04/01 08:22:41;;;;;;;4.10;2.30;;;;;;;2.07;75.99;99976.98;104939;1280;75319;-74
2022/04/01 08:25:08;;;;;;;3.80;2.40;;;;;;;2.14;75.76;99968.02;105840;1278;71540;-72
2022/04/01 08:27:35;;;;;;;7.00;2.60;;;;;;;2.19;75.25;99967.50;105027;1277;72756;-73
2022/04/01 08:30:05;;;;;;;4.10;2.50;;;;;;;2.29;75.00;99969.05;104944;1279;61359;-73
2022/04/01 08:32:37;;;;;;;5.00;2.20;;;;;;;2.40;74.43;99974.68;105097;1277;61503;-73
2022/04/01 08:35:08;;;;;;;4.20;1.90;;;;;;;2.53;74.26;99977.05;105002;1277;74945;-77
2022/04/01 08:37:35;;;;;;;7.20;2.30;;;;;;;2.52;72.38;99979.08;105031;1278;72828;-74
2022/04/01 08:40:03;;;;;;;6.00;2.20;;;;;;;2.55;73.11;99977.35;105047;1277;74266;-70
2022/04/01 08:42:32;;;;;;;7.10;2.30;;;;;;;2.61;72.97;99978.75;104967;1277;61477;-74
2022/04/01 08:45:10;;;;;;;4.20;2.30;;;;;;;2.69;73.09;99984.29;104979;1278;61512;-69
2022/04/01 08:47:38;;;;;;;5.40;2.70;;;;;;;2.73;71.98;99983.94;104908;1277;75933;-69
2022/04/01 08:50:08;;;;;;;5.40;2.10;;;;;;;2.74;71.52;99981.70;105011;1278;72709;-69
2022/04/01 08:52:44;;;;;;;5.60;2.70;;;;;;;2.82;71.41;99979.77;104953;1277;75990;-69
2022/04/01 08:55:12;;;;;;;5.20;2.00;;;;;;;2.99;72.56;99987.58;104765;1278;62416;-70
2022/04/01 08:57:44;;;;;;;3.70;2.50;;;;;;;3.13;70.19;99997.98;104770;1275;62140;-69
2022/04/01 09:00:17;;;;;;;5.20;2.60;;;;;;;3.24;69.26;100003.23;104823;1276;75662;-69
2022/04/01 09:02:52;;;;;;;3.70;2.50;;;;;;;3.39;69.89;100008.33;104765;1277;72356;-70
2022/04/01 09:05:22;;;;;;;4.70;2.20;;;;;;;3.64;70.78;100006.62;104656;1279;73905;-69
2022/04/01 09:08:02;;;;;;;5.10;3.00;;;;;;;3.77;67.54;100004.04;104820;1280;61741;-68
2022/04/01 09:11:01;;;;;;;4.50;2.70;;;;;;;3.97;68.45;100004.64;104779;1278;61113;-68
2022/04/01 09:13:34;;;;;;;5.60;2.80;;;;;;;4.15;66.40;100004.88;104880;1278;74992;-67
2022/04/01 09:16:47;;;;;;;11.80;3.10;;;;;;;4.23;65.43;100002.65;104878;1277;70514;-67
2022/04/01 09:19:14;;;;;;;5.60;2.60;;;;;;;4.38;64.58;100005.10;104720;1278;72846;-70
2022/04/01 09:21:47;;;;;;;4.30;2.20;;;;;;;4.44;64.01;100009.55;104706;1277;62277;-69
2022/04/01 09:24:17;;;;;;;5.40;2.90;;;;;;;4.50;63.30;100008.98;104736;1278;61687;-70
2022/04/01 09:26:44;;;;;;;5.10;2.90;;;;;;;4.60;63.81;100010.56;104840;1278;74770;-67
2022/04/01 09:29:24;;;;;;;4.70;2.70;;;;;;;4.71;63.68;100018.08;104819;1277;72380;-69
2022/04/01 09:31:55;;;;;;;5.40;2.80;;;;;;;4.85;63.70;100020.35;104806;1277;74491;-70
2022/04/01 09:34:30;;;;;;;4.90;2.40;;;;;;;4.95;61.47;100023.77;104835;1278;61730;-69
2022/04/01 09:36:57;;;;;;;7.00;2.90;;;;;;;5.05;61.04;100025.67;104754;1278;61254;-71
2022/04/01 09:39:29;;;;;;;3.70;2.20;;;;;;;5.10;57.95;100027.48;104770;1277;76060;-71
2022/04/01 09:41:58;;;;;;;4.40;1.80;;;;;;;5.08;55.65;100024.73;104750;1278;72977;-72
2022/04/01 09:44:29;;;;;;;3.00;1.80;;;;;;;5.00;55.03;100024.25;105084;1277;73759;-73
2022/04/01 09:46:59;;;;;;;3.10;1.20;;;;;;;4.92;54.64;100023.32;104943;1278;62385;-70
2022/04/01 09:49:34;;;;;;;4.00;1.70;;;;;;;4.90;54.83;100028.60;104864;1277;61285;-72
2022/04/01 09:52:07;;;;;;;5.00;1.80;;;;;;;4.95;55.13;100022.58;104843;1278;73451;-73
2022/04/01 09:54:56;;;;;;;2.90;2.30;;;;;;;4.96;54.86;100022.06;104907;1278;71513;-72
2022/04/01 09:57:24;;;;;;;2.90;1.40;;;;;;;5.00;54.47;100019.17;104802;1278;72767;-75
2022/04/01 09:59:54;;;;;;;2.40;1.50;;;;;;;5.01;53.87;100017.86;105121;1278;61458;-74
2022/04/01 10:02:30;;;;;;;3.80;2.20;;;;;;;4.99;53.23;100019.45;104941;1278;61417;-73
2022/04/01 10:05:18;;;;;;;3.50;1.90;;;;;;;4.97;52.43;100019.87;104848;1278;75848;-76
2022/04/01 10:08:00;;;;;;;5.50;2.00;;;;;;;4.98;52.83;100017.64;105008;1278;71411;-73
2022/04/01 10:10:30;;;;;;;4.80;1.60;;;;;;;4.92;52.22;100018.45;104851;1277;74016;-73
2022/04/01 10:13:10;;;;;;;4.10;1.90;;;;;;;4.86;51.78;100024.27;104806;1278;62571;-72
2022/04/01 10:15:42;;;;;;;3.50;2.10;;;;;;;4.84;51.95;100024.42;104844;1277;61267;-73
2022/04/01 10:18:12;;;;;;;4.00;2.70;;;;;;;4.93;52.91;100029.50;105010;1277;73713;-74
2022/04/01 10:20:39;;;;;;;3.10;1.70;;;;;;;5.03;52.14;100027.86;104969;1278;71505;-71
2022/04/01 10:23:11;;;;;;;3.40;1.60;;;;;;;5.11;52.08;100028.43;104872;1278;73045;-72
2022/04/01 10:26:02;;;;;;;4.60;2.20;;;;;;;5.13;51.03;100031.16;104982;1277;61279;-72
2022/04/01 10:28:40;;;;;;;2.20;1.40;;;;;;;5.15;50.53;100030.94;104824;1277;61217;-70
2022/04/01 10:31:27;;;;;;;2.80;1.80;;;;;;;5.21;50.60;100027.41;104852;1277;73885;-71
2022/04/01 10:34:27;;;;;;;3.10;1.90;;;;;;;5.21;50.50;100026.84;104879;1277;72564;-72
2022/04/01 10:37:00;;;;;;;3.10;1.40;;;;;;;5.23;49.61;100027.83;104871;1278;72677;-73
2022/04/01 10:39:28;;;;;;;3.00;1.40;;;;;;;5.22;48.28;100029.08;104967;1277;61374;-73
2022/04/01 10:42:18;;;;;;;3.00;1.40;;;;;;;5.14;48.66;100027.05;105025;1277;61975;-74
2022/04/01 10:44:49;;;;;;;3.40;1.50;;;;;;;5.08;49.77;100033.11;104908;1277;75032;-71
2022/04/01 10:51:36;;;;;;;3.40;1.80;;;;;;;5.05;49.87;100033.45;104965;1278;72925;-71
2022/04/01 10:53:37;;;;;;;2.50;0.90;;;;;;;4.74;46.79;100033.67;104797;1277;61223;-69
2022/04/01 10:56:25;;;;;;;1.60;1.20;;;;;;;4.61;47.75;100034.80;104898;1277;61373;-73
2022/04/01 10:59:05;;;;;;;4.40;1.70;;;;;;;4.48;47.11;100041.86;104821;1278;74900;-72
2022/04/01 11:01:34;;;;;;;3.10;1.60;;;;;;;4.46;49.19;100039.30;104872;1277;70614;-69
2022/04/01 11:04:21;;;;;;;3.90;1.40;;;;;;;4.46;49.12;100037.67;104992;1277;72708;-71
2022/04/01 11:06:57;;;;;;;2.90;1.70;;;;;;;4.44;48.66;100041.04;104747;1278;61354;-72
2022/04/01 11:09:35;;;;;;;2.60;1.30;;;;;;;4.42;48.09;100046.52;104792;1277;61358;-71
2022/04/01 11:12:35;;;;;;;2.20;1.50;;;;;;;4.37;47.23;100048.41;104862;1277;76599;-71
2022/04/01 11:15:08;;;;;;;2.30;1.30;;;;;;;4.31;47.51;100052.31;104755;1277;71572;-71
2022/04/01 11:17:41;;;;;;;3.00;1.70;;;;;;;4.29;46.88;100052.61;104782;1277;74035;-70
2022/04/01 11:20:25;;;;;;;4.90;1.80;;;;;;;4.27;46.69;100054.60;104750;1278;61291;-72
2022/04/01 11:23:03;;;;;;;2.90;1.50;;;;;;;4.25;46.31;100057.98;104796;1277;61273;-70
2022/04/01 11:25:35;;;;;;;2.70;1.40;;;;;;;4.23;46.47;100065.86;104798;1277;75249;-68
2022/04/01 11:28:06;;;;;;;4.90;1.60;;;;;;;4.27;47.23;100067.05;104896;1277;71519;-71
2022/04/01 11:30:36;;;;;;;4.60;1.70;;;;;;;4.27;46.24;100066.83;104862;1277;73108;-74
2022/04/01 11:33:18;;;;;;;3.20;1.80;;;;;;;4.33;47.13;100070.48;104584;1278;391887;-71
2022/04/01 11:35:47;;;;;;;1.90;1.20;;;;;;;4.43;46.50;100067.36;104914;1277;62078;-73
2022/04/01 11:38:18;;;;;;;2.10;1.00;;;;;;;4.49;45.27;100065.98;104799;1277;76255;-70
2022/04/01 11:40:54;;;;;;;3.10;1.50;;;;;;;4.56;45.25;100069.68;104920;1277;71568;-72
2022/04/01 11:43:23;;;;;;;2.50;1.00;;;;;;;4.66;45.04;100069.67;104753;1277;73200;-69
2022/04/01 11:45:57;;;;;;;3.10;1.50;;;;;;;4.74;44.77;100069.98;104762;1277;61262;-70
2022/04/01 11:48:34;;;;;;;2.90;1.40;;;;;;;4.84;44.52;100073.69;104932;1277;61241;-70
2022/04/01 11:51:18;;;;;;;3.90;1.50;;;;;;;4.94;44.38;100065.75;104767;1277;74292;-73
2022/04/01 11:53:52;;;;;;;6.10;1.40;;;;;;;4.97;44.37;100070.83;104840;1276;71678;-72
2022/04/01 11:56:22;;;;;;;3.10;1.40;;;;;;;4.96;42.55;100070.08;104750;1277;73038;-75
2022/04/01 11:59:03;;;;;;;1.50;1.00;;;;;;;4.99;43.20;100073.27;105114;1276;61322;-73
2022/04/01 12:01:33;;;;;;;2.20;1.10;;;;;;;5.06;42.69;100075.86;105038;1277;61929;-70
2022/04/01 12:04:14;;;;;;;2.20;1.10;;;;;;;5.12;42.92;100073.59;104835;1277;76260;-70
2022/04/01 12:09:30;;;;;;;2.00;1.10;;;;;;;5.09;41.68;100076.62;104822;1277;74112;-73
2022/04/01 12:12:01;;;;;;;2.20;1.10;;;;;;;5.03;41.98;100073.02;104872;1277;61349;-72
2022/04/01 12:14:30;;;;;;;2.40;1.00;;;;;;;4.94;42.25;100071.30;104814;1277;62777;-71
2022/04/01 12:17:07;;;;;;;2.60;0.80;;;;;;;4.92;43.26;100072.77;104818;1277;76415;-73
2022/04/01 12:19:34;;;;;;;2.80;1.00;;;;;;;4.95;43.79;100067.73;104783;1277;72450;-72
2022/04/01 12:22:01;;;;;;;3.70;1.00;;;;;;;5.01;43.58;100056.63;104854;1276;74141;-71
2022/04/01 12:24:31;;;;;;;2.80;1.10;;;;;;;5.08;43.41;100062.55;104879;1276;61342;-70
2022/04/01 12:26:59;;;;;;;3.80;1.50;;;;;;;5.21;43.92;100065.98;104855;1277;61170;-73
2022/04/01 12:29:28;;;;;;;6.00;1.40;;;;;;;5.35;42.57;100061.39;104955;1277;75803;-72
2022/04/01 12:32:03;;;;;;;7.40;1.40;;;;;;;5.45;41.60;100056.17;105020;1277;72498;-72
2022/04/01 12:34:30;;;;;;;3.50;1.20;;;;;;;5.58;42.16;100059.36;104886;1277;72960;-72